Impacts METAR Board
IDs:

KMCO - Orlando Intl, FL, US

Updated at: 2100 UTC 20 Jun 2019
Potential Impact None Slight Moderate High
Time 20/09Z 20/10Z 20/11Z 20/12Z 20/13Z 20/14Z 20/15Z 20/16Z 20/17Z 20/18Z 20/19Z 20/20Z 20/21Z
Temp73 73 74 77 80 84 87 89 91 88 92 93 93
Dewpt71 71 72 75 76 75 75 75 73 76 72 71 72
Altim29.97 29.99 30.01 30.03 30.04 30.05 30.04 30.03 30.02 30.01 30.00 29.99 29.98
VIS10 10 10 10 10 10 10 10 10 10 10 10 10
CIG-- 250 250 -- -- -- -- -- -- -- -- -- --
CoverSCTBKNBKNSCTSCTFEWSCTSCTSCTSCTSCTSCTSCT
FltCatVFRVFRVFRVFRVFRVFRVFRVFRVFRVFRVFRVFRVFR
WX--------------------------
WDir210200190210210220220230220290270260240
WSpd3 3 4 7 7 11 13 12 14 8 9 12 10
WGst-- -- -- -- -- -- -- -- -- -- -- -- --
Raw hourly METARs
KMCO 200853Z 21003KT 10SM FEW012 SCT160 SCT250 23/22 A2997 RMK AO2 SLP149 T02280217 55002
KMCO 200953Z 20003KT 10SM FEW015 FEW160 BKN250 23/22 A2999 RMK AO2 SLP153 T02280217
KMCO 201053Z 19004KT 10SM FEW006 BKN250 23/22 A3001 RMK AO2 SLP161 T02330222
KMCO 201153Z 21007KT 10SM FEW008 SCT250 25/24 A3003 RMK AO2 SLP169 70076 T02500239 10250 20228 53020
KMCO 201253Z 21007KT 10SM FEW009 SCT250 27/24 A3004 RMK AO2 SLP172 T02670244
KMCO 201353Z 22011KT 10SM FEW015 FEW250 29/24 A3005 RMK AO2 SLP174 T02890239
KMCO 201453Z 22013KT 10SM SCT024 SCT250 31/24 A3004 RMK AO2 SLP170 T03060239 50001
KMCO 201553Z 23012KT 10SM SCT033 SCT250 32/24 A3003 RMK AO2 SLP167 T03170239
KMCO 201653Z 22014KT 10SM SCT039 33/23 A3002 RMK AO2 SLP163 T03280228
KMCO 201753Z 29008KT 10SM SCT038TCU SCT080 31/24 A3001 RMK AO2 WSHFT 1711 RAB21E49 SLP160 TCU E AND W VCSH E P0008 60008 T03110244 10333 20250 57009
KMCO 201853Z 27009KT 10SM SCT046 SCT250 33/22 A3000 RMK AO2 SLP156 T03330222
KMCO 201953Z 26012KT 10SM FEW050TCU SCT250 34/22 A2999 RMK AO2 SLP153 TCU SE T03390217
KMCO 202053Z 24010KT 10SM FEW050 SCT250 34/22 A2998 RMK AO2 SLP151 T03390222 56009



Page loaded:  21:20 UTC  |   02:20 PM Pacific  |   03:20 PM Mountain  |   04:20 PM Central  |   05:20 PM Eastern

 

ADVISORIES

FORECASTS

FORECASTS

OBSERVATIONS

USER TOOLS

ABOUT US